Time;durP1;ratioP1;P1;durP2;ratioP2;P2;SDS_P1;SDS_P2;PMS_P1;PMS_P2;Temp;Humidity;BMP_temperature;BMP_pressure;BME280_temperature;BME280_humidity;BME280_pressure;Samples;Min_cycle;Max_cycle;Signal;HPM_P1;HPM_P2
2023/10/16 00:01:09;;;;;;;8.70;5.10;;;7.50;68.70;;;;;;5128362;27;20243;-76
2023/10/16 00:03:41;;;;;;;8.13;5.22;;;7.40;69.00;;;;;;5134970;27;20249;-76
2023/10/16 00:06:12;;;;;;;9.57;5.65;;;7.40;68.80;;;;;;5107588;27;20200;-79
2023/10/16 00:08:47;;;;;;;7.50;5.17;;;7.30;68.60;;;;;;5110511;27;20234;-76
2023/10/16 00:11:17;;;;;;;8.55;4.78;;;7.20;68.70;;;;;;5130226;27;20446;-78
2023/10/16 00:13:49;;;;;;;8.60;5.03;;;7.20;68.90;;;;;;5128181;27;20841;-79
2023/10/16 00:16:18;;;;;;;8.20;4.47;;;7.20;69.00;;;;;;5128062;27;20224;-79
2023/10/16 00:18:48;;;;;;;7.90;4.63;;;7.20;69.10;;;;;;5103198;27;20215;-78
2023/10/16 00:21:17;;;;;;;9.00;5.80;;;7.30;69.10;;;;;;5128105;27;20202;-77
2023/10/16 00:23:46;;;;;;;9.13;4.67;;;7.30;68.90;;;;;;5127974;27;20532;-78
2023/10/16 00:26:19;;;;;;;7.85;4.50;;;7.20;68.90;;;;;;5129747;27;21097;-78
2023/10/16 00:29:02;;;;;;;7.78;4.45;;;7.20;68.90;;;;;;5132520;27;20205;-78
2023/10/16 00:31:32;;;;;;;6.68;4.25;;;7.20;68.90;;;;;;5092666;28;20289;-78
2023/10/16 00:34:04;;;;;;;8.38;4.95;;;7.30;69.00;;;;;;5105556;28;20558;-78
2023/10/16 00:36:32;;;;;;;7.60;5.27;;;7.20;68.80;;;;;;5083086;28;20287;-78
2023/10/16 00:39:12;;;;;;;8.65;5.20;;;7.10;68.60;;;;;;5086493;28;20474;-77
2023/10/16 00:41:42;;;;;;;12.77;5.28;;;7.00;68.50;;;;;;5087855;28;20547;-77
2023/10/16 00:44:10;;;;;;;8.30;4.72;;;7.00;68.70;;;;;;5087434;28;20218;-77
2023/10/16 00:46:44;;;;;;;7.35;5.13;;;7.00;68.80;;;;;;5093100;28;20827;-78
2023/10/16 00:49:14;;;;;;;9.20;5.45;;;7.00;68.90;;;;;;5102536;28;20252;-79
2023/10/16 00:51:42;;;;;;;10.40;5.30;;;7.00;68.90;;;;;;5105507;28;20623;-77
2023/10/16 00:54:16;;;;;;;7.10;4.70;;;7.00;68.60;;;;;;5084802;28;20813;-77
2023/10/16 00:56:46;;;;;;;7.35;4.85;;;6.90;68.50;;;;;;5088218;27;20351;-78
2023/10/16 00:59:16;;;;;;;9.55;5.50;;;6.80;68.50;;;;;;5091874;28;20206;-79
2023/10/16 01:01:45;;;;;;;9.43;4.72;;;6.70;68.70;;;;;;5106196;27;20595;-76
2023/10/16 01:04:16;;;;;;;8.25;5.22;;;6.70;68.80;;;;;;5105475;27;20198;-78
2023/10/16 01:06:46;;;;;;;8.32;5.32;;;6.60;68.90;;;;;;5116477;27;20744;-77
2023/10/16 01:09:22;;;;;;;9.45;5.00;;;6.60;69.10;;;;;;5099163;28;20608;-77
2023/10/16 01:11:54;;;;;;;7.50;5.15;;;6.60;69.20;;;;;;5100505;28;20284;-80
2023/10/16 01:14:25;;;;;;;8.68;5.05;;;6.70;69.50;;;;;;5098835;28;20680;-77
2023/10/16 01:16:54;;;;;;;9.20;5.15;;;6.70;69.60;;;;;;5093893;28;20208;-77
2023/10/16 01:19:25;;;;;;;10.15;4.75;;;6.80;69.50;;;;;;5111271;28;20295;-77
2023/10/16 01:21:53;;;;;;;6.95;4.50;;;6.90;69.50;;;;;;5094074;28;20227;-77
2023/10/16 01:24:24;;;;;;;8.77;5.18;;;6.90;69.40;;;;;;5110161;28;20293;-77
2023/10/16 01:26:52;;;;;;;9.32;4.82;;;6.90;69.30;;;;;;5117385;28;20195;-77
2023/10/16 01:29:20;;;;;;;9.02;4.93;;;6.90;69.10;;;;;;5109223;28;20204;-77
2023/10/16 01:31:52;;;;;;;11.02;5.22;;;6.80;69.10;;;;;;5112516;28;20574;-78
2023/10/16 01:34:22;;;;;;;10.07;4.55;;;6.80;69.10;;;;;;5111398;28;20185;-77
2023/10/16 01:36:52;;;;;;;14.20;4.82;;;6.80;69.10;;;;;;5092111;28;20535;-78
2023/10/16 01:42:11;;;;;;;8.20;4.60;;;6.90;69.10;;;;;;5093460;28;20281;-78
2023/10/16 01:44:40;;;;;;;10.00;5.30;;;6.80;68.90;;;;;;5109006;28;20838;-80
2023/10/16 01:47:13;;;;;;;9.40;4.68;;;6.80;69.00;;;;;;5093398;28;20807;-77
2023/10/16 01:49:42;;;;;;;7.03;4.60;;;6.80;68.90;;;;;;5111427;28;20203;-79
2023/10/16 01:52:13;;;;;;;7.40;4.65;;;6.80;69.10;;;;;;5098075;28;20293;-78
2023/10/16 01:54:44;;;;;;;8.48;4.80;;;6.80;69.10;;;;;;5109442;28;20277;-79
2023/10/16 01:57:13;;;;;;;8.82;4.95;;;6.80;69.00;;;;;;5087521;28;20234;-76
2023/10/16 01:59:44;;;;;;;7.20;5.18;;;6.80;68.90;;;;;;5088131;28;20194;-79
2023/10/16 02:02:12;;;;;;;7.55;4.95;;;6.80;68.90;;;;;;5109678;28;20338;-78
2023/10/16 02:04:42;;;;;;;7.65;4.75;;;6.70;68.90;;;;;;5097545;28;20207;-76
2023/10/16 02:07:11;;;;;;;7.50;4.80;;;6.70;68.80;;;;;;5103259;27;20183;-76
2023/10/16 02:09:41;;;;;;;7.15;4.47;;;6.60;68.60;;;;;;5118219;27;20190;-76
2023/10/16 02:12:14;;;;;;;7.63;4.40;;;6.60;68.80;;;;;;5116990;27;20259;-80
2023/10/16 02:14:44;;;;;;;8.13;5.30;;;6.60;68.90;;;;;;5114724;27;20263;-79
2023/10/16 02:17:18;;;;;;;8.02;4.22;;;6.60;68.90;;;;;;5098657;27;20741;-77
2023/10/16 02:19:47;;;;;;;7.65;4.20;;;6.60;68.80;;;;;;5099498;27;20220;-77
2023/10/16 02:22:16;;;;;;;7.90;5.05;;;6.50;68.80;;;;;;5102825;27;20653;-80
2023/10/16 02:24:48;;;;;;;9.40;4.70;;;6.50;68.70;;;;;;5097524;27;20215;-79
2023/10/16 02:27:18;;;;;;;9.13;5.13;;;6.50;68.80;;;;;;5098642;28;20203;-78
2023/10/16 02:29:51;;;;;;;9.50;5.30;;;6.50;68.80;;;;;;5119127;27;20203;-78
2023/10/16 02:32:22;;;;;;;9.48;5.78;;;6.50;68.80;;;;;;5114420;27;20280;-76
2023/10/16 02:34:51;;;;;;;9.93;5.70;;;6.50;68.80;;;;;;5116508;27;20186;-78
2023/10/16 02:37:20;;;;;;;8.90;6.05;;;6.50;68.80;;;;;;5102837;27;20222;-77
2023/10/16 02:39:53;;;;;;;7.57;4.75;;;6.50;68.80;;;;;;5099120;28;20215;-77
2023/10/16 02:42:25;;;;;;;9.02;4.75;;;6.50;68.80;;;;;;5096623;27;20211;-77
2023/10/16 02:44:56;;;;;;;8.38;4.50;;;6.50;68.80;;;;;;5111266;27;20794;-77
2023/10/16 02:47:26;;;;;;;7.60;4.80;;;6.50;68.80;;;;;;5110820;27;20199;-78
2023/10/16 02:49:56;;;;;;;7.90;5.35;;;6.50;68.80;;;;;;5112867;27;20209;-77
2023/10/16 02:52:30;;;;;;;8.40;5.50;;;6.50;68.70;;;;;;5097372;27;20225;-77
2023/10/16 02:55:00;;;;;;;9.98;5.95;;;6.50;68.80;;;;;;5118853;27;20203;-78
2023/10/16 02:57:29;;;;;;;10.35;5.78;;;6.50;68.90;;;;;;5112165;27;20219;-77
2023/10/16 02:59:57;;;;;;;11.30;6.60;;;6.50;68.90;;;;;;5110265;27;20200;-78
2023/10/16 03:02:27;;;;;;;13.93;7.82;;;6.50;68.90;;;;;;5108709;27;20250;-76
2023/10/16 03:05:10;;;;;;;19.02;7.78;;;6.60;68.90;;;;;;5098630;27;20236;-77
2023/10/16 03:07:39;;;;;;;15.75;8.98;;;6.60;68.90;;;;;;5115440;27;20196;-78
2023/10/16 03:10:10;;;;;;;17.55;9.30;;;6.60;69.10;;;;;;5094569;28;20209;-78
2023/10/16 03:12:39;;;;;;;13.63;7.65;;;6.60;69.10;;;;;;5095413;28;20307;-79
2023/10/16 03:15:15;;;;;;;12.52;7.38;;;6.60;69.20;;;;;;5093224;27;20199;-79
2023/10/16 03:17:43;;;;;;;27.05;8.27;;;6.60;69.40;;;;;;5110294;27;20220;-77
2023/10/16 03:20:19;;;;;;;14.20;6.75;;;6.60;69.30;;;;;;5113416;27;20558;-76
2023/10/16 03:22:50;;;;;;;20.17;8.15;;;6.50;69.30;;;;;;5094311;27;20905;-76
2023/10/16 03:25:50;;;;;;;14.65;7.60;;;6.50;69.30;;;;;;5120373;27;20210;-77
2023/10/16 03:28:14;;;;;;;15.00;8.10;;;6.50;69.30;;;;;;5110384;27;20881;-76
2023/10/16 03:30:42;;;;;;;15.60;8.20;;;6.50;69.40;;;;;;5112491;27;20574;-77
2023/10/16 03:33:14;;;;;;;15.30;7.93;;;6.50;69.40;;;;;;5110168;27;20258;-78
2023/10/16 03:35:45;;;;;;;14.18;7.22;;;6.40;69.40;;;;;;5119553;27;20194;-79
2023/10/16 03:38:24;;;;;;;16.25;8.23;;;6.40;69.40;;;;;;5109518;27;20686;-79
2023/10/16 03:40:56;;;;;;;16.83;8.00;;;6.30;69.50;;;;;;5116185;27;20198;-80
2023/10/16 03:43:25;;;;;;;14.18;7.82;;;6.30;69.50;;;;;;5097591;27;20289;-78
2023/10/16 03:45:53;;;;;;;14.38;8.43;;;6.30;69.60;;;;;;5097638;27;20206;-77
2023/10/16 03:48:21;;;;;;;13.90;8.25;;;6.20;69.60;;;;;;5104578;27;20621;-77
2023/10/16 03:50:49;;;;;;;14.48;8.25;;;6.20;69.70;;;;;;5117049;27;20919;-77
2023/10/16 03:53:18;;;;;;;14.90;8.95;;;6.20;69.80;;;;;;5101048;27;20203;-77
2023/10/16 03:55:48;;;;;;;13.43;8.07;;;6.20;69.80;;;;;;5117112;27;20586;-77
2023/10/16 03:58:17;;;;;;;15.80;8.18;;;6.20;69.90;;;;;;5119172;27;20228;-77
2023/10/16 04:00:52;;;;;;;14.82;7.95;;;6.20;69.90;;;;;;5116857;27;20250;-77
2023/10/16 04:03:21;;;;;;;13.27;8.15;;;6.20;69.80;;;;;;5118783;27;20552;-78
2023/10/16 04:05:51;;;;;;;13.18;7.88;;;6.20;69.90;;;;;;5098953;27;20265;-78
2023/10/16 04:08:21;;;;;;;15.65;8.82;;;6.20;69.90;;;;;;5102209;27;20201;-78
2023/10/16 04:10:53;;;;;;;13.07;7.55;;;6.10;69.90;;;;;;5114394;27;20200;-78
2023/10/16 04:13:26;;;;;;;14.55;7.40;;;6.10;69.90;;;;;;5114857;27;20223;-76
2023/10/16 04:16:09;;;;;;;12.23;7.53;;;6.10;69.90;;;;;;5086135;27;20209;-77
2023/10/16 04:18:41;;;;;;;16.23;7.65;;;6.10;70.00;;;;;;5107104;27;20190;-77
2023/10/16 04:21:37;;;;;;;12.95;7.82;;;6.00;69.90;;;;;;5095043;27;20199;-77
2023/10/16 04:24:19;;;;;;;12.70;7.00;;;6.00;69.90;;;;;;5095037;27;20213;-76
2023/10/16 04:26:57;;;;;;;12.35;7.55;;;6.00;70.00;;;;;;5109372;27;20240;-77
2023/10/16 04:29:28;;;;;;;13.10;7.75;;;5.90;70.00;;;;;;5108639;27;20212;-77
2023/10/16 04:31:55;;;;;;;10.50;7.30;;;5.90;70.00;;;;;;5111104;27;20226;-79
2023/10/16 04:34:31;;;;;;;12.85;8.27;;;5.90;70.00;;;;;;5112851;27;20190;-77
2023/10/16 04:45:59;;;;;;;21.10;12.38;;;5.90;70.20;;;;;;5114013;27;20634;-79
2023/10/16 04:51:26;;;;;;;20.20;9.50;;;5.90;70.10;;;;;;5089549;28;20207;-77
2023/10/16 04:54:27;;;;;;;16.05;9.57;;;5.90;70.10;;;;;;5095053;28;20281;-78
2023/10/16 04:57:18;;;;;;;16.33;9.45;;;5.80;70.10;;;;;;5115628;27;20232;-78
2023/10/16 04:59:59;;;;;;;15.10;8.90;;;5.90;70.20;;;;;;5110423;28;20205;-76
2023/10/16 05:02:40;;;;;;;13.15;9.15;;;5.90;70.20;;;;;;5104597;28;20328;-80
2023/10/16 05:08:13;;;;;;;12.45;7.53;;;5.80;70.10;;;;;;5108244;27;20208;-77
2023/10/16 05:11:23;;;;;;;19.75;10.98;;;5.80;70.10;;;;;;5116733;28;20244;-76
2023/10/16 05:13:55;;;;;;;16.50;10.00;;;5.80;70.10;;;;;;5093654;28;20255;-77
2023/10/16 05:16:31;;;;;;;21.00;10.85;;;5.80;70.10;;;;;;5110359;28;20285;-80
2023/10/16 05:19:17;;;;;;;17.42;11.07;;;5.80;70.10;;;;;;5115211;28;20237;-76
2023/10/16 05:22:02;;;;;;;14.88;10.30;;;5.80;70.20;;;;;;5109473;28;20206;-77
2023/10/16 06:14:25;;;;;;;14.07;8.30;;;5.60;72.00;;;;;;5091401;28;20240;-79
2023/10/16 06:16:54;;;;;;;21.73;9.02;;;5.70;72.20;;;;;;5089819;28;20207;-76
2023/10/16 06:19:22;;;;;;;34.08;7.60;;;5.80;72.30;;;;;;5092499;28;20199;-76
2023/10/16 06:21:56;;;;;;;11.95;6.60;;;5.80;72.30;;;;;;5068267;28;20277;-78
2023/10/16 06:24:28;;;;;;;13.68;6.63;;;5.90;72.30;;;;;;5071595;28;20551;-79
2023/10/16 06:26:57;;;;;;;31.50;7.85;;;5.90;72.30;;;;;;5075805;28;20832;-77
2023/10/16 06:29:35;;;;;;;17.08;6.82;;;5.90;72.30;;;;;;5098821;28;20209;-78
2023/10/16 06:32:07;;;;;;;12.85;6.72;;;5.90;72.40;;;;;;5100319;28;20215;-77
2023/10/16 06:34:36;;;;;;;17.83;6.97;;;5.90;72.40;;;;;;5100255;28;20203;-79
2023/10/16 06:37:06;;;;;;;11.23;6.70;;;6.00;72.40;;;;;;5069793;28;20849;-77
2023/10/16 06:39:41;;;;;;;13.82;7.20;;;6.00;72.50;;;;;;5097431;28;20218;-76
2023/10/16 06:42:14;;;;;;;33.45;7.88;;;6.00;72.60;;;;;;5089949;28;20206;-78
2023/10/16 06:44:42;;;;;;;11.13;6.30;;;6.00;72.60;;;;;;5082371;28;20648;-77
2023/10/16 06:47:13;;;;;;;13.07;7.45;;;6.00;72.60;;;;;;5097852;28;20244;-76
2023/10/16 06:49:42;;;;;;;15.75;7.97;;;6.00;72.80;;;;;;5096192;28;20199;-78
2023/10/16 06:52:12;;;;;;;11.43;6.63;;;6.10;72.70;;;;;;5080416;28;20810;-78
2023/10/16 06:54:42;;;;;;;38.38;8.73;;;6.10;72.80;;;;;;5098295;28;20203;-78
2023/10/16 06:57:12;;;;;;;12.98;7.05;;;6.10;72.80;;;;;;5097181;28;20215;-76
2023/10/16 06:59:42;;;;;;;10.60;6.72;;;6.10;72.80;;;;;;5081134;28;20231;-77
2023/10/16 07:02:15;;;;;;;27.10;7.35;;;6.20;73.00;;;;;;5088259;28;20951;-76
2023/10/16 07:04:45;;;;;;;44.75;8.27;;;6.20;73.00;;;;;;5091187;28;20213;-77
2023/10/16 07:07:18;;;;;;;51.55;9.30;;;6.20;73.00;;;;;;5085988;28;20200;-79
2023/10/16 07:09:51;;;;;;;12.02;7.15;;;6.20;73.00;;;;;;5087523;28;20627;-77
2023/10/16 07:12:20;;;;;;;16.08;7.32;;;6.20;73.00;;;;;;5085496;28;20195;-78
2023/10/16 07:14:56;;;;;;;26.65;7.65;;;6.20;73.20;;;;;;5091888;28;20242;-79
2023/10/16 07:17:25;;;;;;;16.75;6.38;;;6.30;73.30;;;;;;5086726;28;20189;-77
2023/10/16 07:19:58;;;;;;;13.07;6.95;;;6.30;73.30;;;;;;5089410;28;20226;-77
2023/10/16 07:22:31;;;;;;;13.52;7.97;;;6.40;73.40;;;;;;5085944;28;20203;-78
2023/10/16 07:25:22;;;;;;;30.88;10.32;;;6.40;73.50;;;;;;5085039;28;20253;-77
2023/10/16 07:27:58;;;;;;;14.52;8.30;;;6.50;73.50;;;;;;5080679;28;20199;-79
2023/10/16 07:30:27;;;;;;;13.45;7.97;;;6.50;73.30;;;;;;5085397;28;20213;-80
2023/10/16 07:32:56;;;;;;;14.93;9.25;;;6.50;73.50;;;;;;5096167;28;20207;-77
2023/10/16 07:35:24;;;;;;;25.50;9.43;;;6.50;73.70;;;;;;5100735;28;20203;-78
2023/10/16 07:37:53;;;;;;;15.38;8.88;;;6.60;73.60;;;;;;5091193;28;20628;-80
2023/10/16 07:40:25;;;;;;;18.77;9.60;;;6.60;73.60;;;;;;5100491;28;20197;-78
2023/10/16 07:42:54;;;;;;;16.15;9.10;;;6.60;73.60;;;;;;5090335;28;20233;-80
2023/10/16 07:45:22;;;;;;;12.88;7.82;;;6.70;73.60;;;;;;5096381;28;20595;-79
2023/10/16 07:47:51;;;;;;;13.52;8.00;;;6.70;73.60;;;;;;5092926;28;20200;-79
2023/10/16 07:50:19;;;;;;;11.65;7.78;;;6.70;73.70;;;;;;5099276;28;20226;-79
2023/10/16 07:52:47;;;;;;;13.35;8.05;;;6.70;73.90;;;;;;5096999;28;20736;-79
2023/10/16 07:55:19;;;;;;;12.40;7.95;;;6.80;74.00;;;;;;5097614;28;20192;-78
2023/10/16 07:57:49;;;;;;;14.63;8.15;;;6.90;73.90;;;;;;5096552;28;20206;-77
2023/10/16 08:00:25;;;;;;;12.55;8.18;;;6.90;74.00;;;;;;5095439;28;20226;-78
2023/10/16 08:03:04;;;;;;;14.43;7.60;;;7.00;74.00;;;;;;5095034;28;20780;-79
2023/10/16 08:05:33;;;;;;;11.93;7.20;;;7.00;74.00;;;;;;5096478;28;20190;-78
2023/10/16 08:08:11;;;;;;;12.95;7.43;;;7.00;74.10;;;;;;5093972;28;20219;-76
2023/10/16 08:10:42;;;;;;;11.13;7.05;;;7.10;74.10;;;;;;5090614;28;20261;-79
2023/10/16 08:13:12;;;;;;;12.50;7.28;;;7.10;74.20;;;;;;5087487;28;20194;-78
2023/10/16 08:15:44;;;;;;;15.77;7.13;;;7.20;74.20;;;;;;5093317;28;20292;-76
2023/10/16 08:18:13;;;;;;;12.00;6.80;;;7.20;74.30;;;;;;5098239;28;20573;-79
2023/10/16 08:21:00;;;;;;;13.63;8.20;;;7.30;74.30;;;;;;5088709;28;20454;-78
2023/10/16 08:23:34;;;;;;;16.30;8.75;;;7.30;74.30;;;;;;5095461;28;20286;-81
2023/10/16 08:26:14;;;;;;;20.25;9.55;;;7.30;74.30;;;;;;5108021;27;20215;-79
2023/10/16 08:28:46;;;;;;;14.53;9.47;;;7.30;74.40;;;;;;5094356;28;20231;-77
2023/10/16 08:31:23;;;;;;;16.73;10.45;;;7.30;74.40;;;;;;5091406;28;20514;-77
2023/10/16 08:33:54;;;;;;;18.40;10.13;;;7.30;74.60;;;;;;5083115;28;20309;-79
2023/10/16 08:36:23;;;;;;;19.50;10.70;;;7.40;74.80;;;;;;5087114;28;21171;-79
2023/10/16 08:38:55;;;;;;;19.63;11.65;;;7.40;74.80;;;;;;5091514;28;20476;-79
2023/10/16 08:41:30;;;;;;;20.07;11.23;;;7.40;74.80;;;;;;5092140;28;20192;-77
2023/10/16 08:44:14;;;;;;;18.05;10.48;;;7.50;74.80;;;;;;5094301;28;20533;-78
2023/10/16 08:46:52;;;;;;;16.03;9.73;;;7.50;75.00;;;;;;5092290;28;20267;-77
2023/10/16 08:49:22;;;;;;;17.20;10.18;;;7.60;75.10;;;;;;5089920;28;20461;-79
2023/10/16 08:51:52;;;;;;;18.73;10.93;;;7.60;75.10;;;;;;5089734;28;20209;-77
2023/10/16 08:57:11;;;;;;;21.97;11.20;;;7.70;75.20;;;;;;5091015;28;20253;-79
2023/10/16 08:59:42;;;;;;;14.77;9.70;;;7.80;75.30;;;;;;5090758;28;20466;-79
2023/10/16 09:02:11;;;;;;;19.58;11.80;;;7.80;75.20;;;;;;5087399;28;21004;-78
2023/10/16 09:04:41;;;;;;;24.17;11.40;;;7.90;75.40;;;;;;5090789;28;20610;-77
2023/10/16 09:07:11;;;;;;;19.03;10.70;;;7.90;75.50;;;;;;5097378;28;20204;-78
2023/10/16 09:09:41;;;;;;;17.87;10.53;;;8.00;75.60;;;;;;5093947;28;20455;-78
2023/10/16 09:12:11;;;;;;;17.83;10.87;;;8.10;75.70;;;;;;5089716;28;20477;-78
2023/10/16 09:14:41;;;;;;;22.93;12.47;;;8.20;75.50;;;;;;5096117;28;21455;-79
2023/10/16 09:17:11;;;;;;;20.77;11.57;;;8.20;75.50;;;;;;5091847;28;20452;-78
2023/10/16 09:19:46;;;;;;;24.17;12.30;;;8.30;75.60;;;;;;5094685;28;20482;-79
2023/10/16 09:22:32;;;;;;;22.47;11.80;;;8.40;75.60;;;;;;5092471;28;20817;-79
2023/10/16 09:25:00;;;;;;;19.87;12.60;;;8.40;75.60;;;;;;5099466;28;20448;-80
2023/10/16 09:27:31;;;;;;;22.70;12.47;;;8.50;75.60;;;;;;5091114;28;20508;-79
2023/10/16 09:30:06;;;;;;;22.43;12.30;;;8.50;75.70;;;;;;5089948;28;20458;-80
2023/10/16 09:32:36;;;;;;;21.80;12.10;;;8.50;75.80;;;;;;5088643;28;20459;-79
2023/10/16 09:35:06;;;;;;;18.90;11.47;;;8.50;75.90;;;;;;5096783;28;20451;-79
2023/10/16 09:37:35;;;;;;;21.83;12.47;;;8.60;75.90;;;;;;5097396;28;20481;-79
2023/10/16 09:40:19;;;;;;;20.57;11.27;;;8.60;76.00;;;;;;5090214;28;21061;-79
2023/10/16 09:43:05;;;;;;;18.87;12.30;;;8.50;76.00;;;;;;5094767;28;20570;-79
2023/10/16 09:45:35;;;;;;;24.20;14.30;;;8.50;76.10;;;;;;5094871;28;20551;-79
2023/10/16 09:48:08;;;;;;;18.97;12.03;;;8.40;76.20;;;;;;5094881;28;20984;-80
2023/10/16 09:50:37;;;;;;;25.43;14.73;;;8.40;76.30;;;;;;5088081;28;20463;-79
2023/10/16 09:53:07;;;;;;;23.10;14.23;;;8.50;76.50;;;;;;5112258;28;20549;-79
2023/10/16 09:55:39;;;;;;;28.73;14.40;;;8.50;76.50;;;;;;5100086;28;20487;-80
2023/10/16 09:58:08;;;;;;;29.43;15.27;;;8.60;76.60;;;;;;5090528;28;20457;-79
2023/10/16 10:00:39;;;;;;;26.47;15.10;;;8.60;76.70;;;;;;5090611;28;20471;-77
2023/10/16 10:03:12;;;;;;;31.93;16.00;;;8.60;76.80;;;;;;5089825;28;20500;-77
2023/10/16 10:05:55;;;;;;;24.53;13.70;;;8.70;76.90;;;;;;5101253;28;20457;-78
2023/10/16 10:08:38;;;;;;;25.00;14.83;;;8.70;77.00;;;;;;5093920;28;20504;-80
2023/10/16 10:11:17;;;;;;;26.40;14.23;;;8.80;77.00;;;;;;5087310;28;20466;-80
2023/10/16 10:14:26;;;;;;;30.47;15.33;;;8.80;76.90;;;;;;5077950;28;20859;-79
2023/10/16 10:17:01;;;;;;;29.80;16.23;;;8.80;77.00;;;;;;5088792;28;20542;-80
2023/10/16 10:19:35;;;;;;;22.63;14.60;;;8.90;77.10;;;;;;5094360;28;21001;-80
2023/10/16 10:22:06;;;;;;;30.80;16.13;;;9.00;77.10;;;;;;5098795;28;20537;-79
2023/10/16 10:24:37;;;;;;;26.07;14.83;;;9.00;77.20;;;;;;5091674;28;20462;-78
2023/10/16 10:27:05;;;;;;;25.47;14.97;;;9.10;77.10;;;;;;5089619;28;20541;-79
2023/10/16 10:29:34;;;;;;;22.03;13.73;;;9.20;77.20;;;;;;5095657;28;21073;-80
2023/10/16 10:32:13;;;;;;;25.07;14.80;;;9.20;77.10;;;;;;5098682;28;20479;-78
2023/10/16 10:34:42;;;;;;;21.80;14.07;;;9.20;77.20;;;;;;5094931;28;20705;-79
2023/10/16 10:37:42;;;;;;;20.70;12.63;;;9.30;77.30;;;;;;5101690;28;20472;-78
2023/10/16 10:40:15;;;;;;;23.00;13.23;;;9.30;77.40;;;;;;5098021;28;21237;-79
2023/10/16 10:42:45;;;;;;;25.00;13.70;;;9.30;77.40;;;;;;5098215;28;20447;-79
2023/10/16 10:45:21;;;;;;;24.87;14.40;;;9.40;77.40;;;;;;5099674;28;21168;-79
2023/10/16 10:47:54;;;;;;;19.90;12.40;;;9.40;77.50;;;;;;5114850;27;20551;-79
2023/10/16 10:50:25;;;;;;;21.77;13.33;;;9.50;77.60;;;;;;5095870;28;20788;-79
2023/10/16 10:52:53;;;;;;;25.17;13.70;;;9.60;77.50;;;;;;5096661;28;20531;-79
2023/10/16 10:55:22;;;;;;;19.67;12.37;;;9.60;77.60;;;;;;5094605;28;20890;-80
2023/10/16 10:58:00;;;;;;;22.00;13.60;;;9.70;77.50;;;;;;5099388;28;20484;-80
2023/10/16 11:03:30;;;;;;;19.20;11.60;;;9.80;77.50;;;;;;5088185;28;20480;-79
2023/10/16 11:05:58;;;;;;;23.73;11.00;;;9.80;77.40;;;;;;5096302;28;20452;-78
2023/10/16 11:08:34;;;;;;;24.63;13.50;;;9.80;77.40;;;;;;5101211;28;20448;-79
2023/10/16 11:11:03;;;;;;;16.53;10.47;;;9.80;77.50;;;;;;5099655;28;20455;-78
2023/10/16 11:13:31;;;;;;;17.07;11.30;;;9.80;77.50;;;;;;5099298;28;20463;-80
2023/10/16 11:16:00;;;;;;;20.37;11.97;;;9.80;77.40;;;;;;5095349;28;20455;-79
2023/10/16 11:18:32;;;;;;;19.30;11.90;;;9.80;77.50;;;;;;5089688;28;20959;-79
2023/10/16 11:21:04;;;;;;;17.33;8.80;;;9.90;77.50;;;;;;5097701;28;20520;-79
2023/10/16 11:23:38;;;;;;;17.30;9.60;;;9.90;77.60;;;;;;5103142;28;20448;-79
2023/10/16 11:26:12;;;;;;;13.93;8.60;;;10.00;77.50;;;;;;5091590;28;20512;-79
2023/10/16 11:28:48;;;;;;;17.90;8.07;;;10.10;77.50;;;;;;5094631;28;20795;-80
2023/10/16 11:31:18;;;;;;;15.20;8.53;;;10.10;77.30;;;;;;5089504;28;20580;-79
2023/10/16 11:34:01;;;;;;;15.27;7.97;;;10.10;77.10;;;;;;5095559;28;20451;-79
2023/10/16 11:36:30;;;;;;;14.73;7.43;;;10.20;77.00;;;;;;5089345;28;20457;-79
2023/10/16 11:39:07;;;;;;;15.03;6.20;;;10.20;76.90;;;;;;5092675;28;20553;-79
2023/10/16 11:41:37;;;;;;;11.73;6.70;;;10.30;76.80;;;;;;5091893;28;20961;-80
2023/10/16 11:44:13;;;;;;;11.40;7.47;;;10.40;76.60;;;;;;5089947;28;20455;-79
2023/10/16 11:46:46;;;;;;;12.43;6.93;;;10.40;76.40;;;;;;5096792;28;20452;-81
2023/10/16 11:49:22;;;;;;;12.43;7.07;;;10.50;76.30;;;;;;5096749;28;20454;-80
2023/10/16 11:51:53;;;;;;;13.30;7.20;;;10.50;76.20;;;;;;5097573;28;20472;-80
2023/10/16 11:54:23;;;;;;;10.30;5.50;;;10.60;76.20;;;;;;5099539;28;20452;-80
2023/10/16 11:56:53;;;;;;;9.80;4.63;;;10.60;76.10;;;;;;5101809;28;20443;-80
2023/10/16 11:59:32;;;;;;;14.97;6.40;;;10.60;75.70;;;;;;5096127;28;20448;-79
2023/10/16 12:02:02;;;;;;;10.17;4.77;;;10.70;75.20;;;;;;5093041;28;20989;-79
2023/10/16 12:04:33;;;;;;;10.57;4.80;;;10.60;75.00;;;;;;5098401;28;20453;-80
2023/10/16 12:07:01;;;;;;;9.70;4.40;;;10.70;74.90;;;;;;5094483;28;21319;-79
2023/10/16 12:09:36;;;;;;;8.90;3.70;;;10.70;74.70;;;;;;5096415;28;20865;-79
2023/10/16 12:12:07;;;;;;;9.40;4.47;;;10.80;74.60;;;;;;5094817;28;20452;-79
2023/10/16 12:14:37;;;;;;;9.30;4.90;;;10.80;74.30;;;;;;5091323;28;20510;-79
2023/10/16 12:17:11;;;;;;;9.47;3.87;;;10.80;74.10;;;;;;5094908;28;20525;-79
2023/10/16 12:19:41;;;;;;;10.40;3.37;;;10.90;73.60;;;;;;5090140;28;20450;-79
2023/10/16 12:22:09;;;;;;;7.93;3.77;;;10.80;73.30;;;;;;5091061;28;20484;-80
2023/10/16 12:24:39;;;;;;;8.67;3.43;;;10.80;73.00;;;;;;5093493;28;20459;-79
2023/10/16 12:27:08;;;;;;;6.23;3.10;;;10.90;72.70;;;;;;5093787;28;20544;-78
2023/10/16 12:29:36;;;;;;;6.70;2.97;;;10.90;72.80;;;;;;5098648;28;20444;-79
2023/10/16 12:32:06;;;;;;;9.07;4.13;;;10.90;72.50;;;;;;5087028;28;21089;-79
2023/10/16 12:34:35;;;;;;;7.80;3.50;;;11.00;72.10;;;;;;5082924;28;20461;-78
2023/10/16 12:37:06;;;;;;;8.40;3.20;;;11.00;72.00;;;;;;5082341;28;20506;-79
2023/10/16 12:39:45;;;;;;;5.30;2.43;;;11.10;71.60;;;;;;5082970;28;20468;-79
2023/10/16 12:42:14;;;;;;;8.33;3.20;;;11.10;71.40;;;;;;5084725;28;20480;-78
2023/10/16 12:44:42;;;;;;;6.00;2.97;;;11.10;71.20;;;;;;5084175;28;20557;-78
2023/10/16 12:47:11;;;;;;;6.40;2.53;;;11.20;71.00;;;;;;5083274;28;21171;-79
2023/10/16 12:49:53;;;;;;;9.13;4.00;;;11.20;70.50;;;;;;5087588;28;20493;-79
2023/10/16 12:52:22;;;;;;;7.97;2.33;;;11.20;70.20;;;;;;5080291;28;20484;-80
2023/10/16 12:54:52;;;;;;;9.93;2.60;;;11.30;69.70;;;;;;5079487;28;20478;-80
2023/10/16 12:57:23;;;;;;;7.10;2.40;;;11.30;69.50;;;;;;5083553;28;20457;-80
2023/10/16 12:59:54;;;;;;;5.83;2.70;;;11.30;69.10;;;;;;5085369;28;20449;-79
2023/10/16 13:02:25;;;;;;;5.83;2.13;;;11.30;68.50;;;;;;5092900;28;20482;-79
2023/10/16 13:04:55;;;;;;;10.40;3.70;;;11.30;68.30;;;;;;5112179;28;20497;-78
2023/10/16 13:07:26;;;;;;;11.90;4.30;;;11.30;68.10;;;;;;5094040;28;20451;-78
2023/10/16 13:10:14;;;;;;;10.10;4.20;;;11.30;67.50;;;;;;5091610;28;20548;-79
2023/10/16 13:12:43;;;;;;;7.80;2.87;;;11.40;67.40;;;;;;5099244;28;20471;-78
2023/10/16 13:15:15;;;;;;;7.97;3.30;;;11.40;67.10;;;;;;5110345;28;21090;-79
2023/10/16 13:17:44;;;;;;;9.40;4.20;;;11.40;67.00;;;;;;5100720;28;20443;-79
2023/10/16 13:20:17;;;;;;;6.50;3.57;;;11.50;66.90;;;;;;5104802;28;21031;-79
2023/10/16 13:22:49;;;;;;;10.20;4.20;;;11.50;66.80;;;;;;5108628;28;20595;-79
2023/10/16 13:25:18;;;;;;;6.87;4.00;;;11.50;66.70;;;;;;5118681;28;20534;-78
2023/10/16 13:27:46;;;;;;;9.43;3.70;;;11.60;66.80;;;;;;5116605;28;20937;-79
2023/10/16 13:30:16;;;;;;;8.60;3.37;;;11.60;66.70;;;;;;5114037;28;20443;-78
2023/10/16 13:32:47;;;;;;;8.30;3.03;;;11.70;66.30;;;;;;5117543;28;20527;-79
2023/10/16 13:35:17;;;;;;;8.10;3.43;;;11.70;65.90;;;;;;5115418;28;20489;-79
2023/10/16 13:37:47;;;;;;;8.17;3.60;;;11.70;65.70;;;;;;5112050;28;20571;-78
2023/10/16 13:40:21;;;;;;;6.20;2.37;;;11.70;65.80;;;;;;5109330;28;20451;-79
2023/10/16 13:42:50;;;;;;;6.90;2.67;;;11.70;65.50;;;;;;5097679;28;20565;-78
2023/10/16 13:45:19;;;;;;;12.60;4.30;;;11.70;65.50;;;;;;5108945;28;20493;-79
2023/10/16 13:47:49;;;;;;;7.53;2.60;;;11.80;65.30;;;;;;5110272;28;20467;-79
2023/10/16 13:50:18;;;;;;;6.17;2.27;;;11.80;65.10;;;;;;5117884;28;20436;-79
2023/10/16 13:52:48;;;;;;;7.00;2.30;;;11.80;65.00;;;;;;5091689;28;20464;-79
2023/10/16 13:55:20;;;;;;;5.90;2.00;;;11.80;64.90;;;;;;5086880;28;20492;-82
2023/10/16 13:57:54;;;;;;;9.43;3.20;;;11.90;64.90;;;;;;5114479;28;20458;-80
2023/10/16 14:00:29;;;;;;;9.00;2.17;;;11.90;64.50;;;;;;5111702;28;20530;-79
2023/10/16 14:02:58;;;;;;;7.77;1.90;;;11.90;64.00;;;;;;5107018;27;20983;-81
2023/10/16 14:05:28;;;;;;;8.97;2.90;;;11.90;63.70;;;;;;5104117;27;20513;-78
2023/10/16 14:08:00;;;;;;;5.60;2.10;;;11.90;63.80;;;;;;5115302;27;20463;-81
2023/10/16 14:10:29;;;;;;;5.90;1.87;;;11.90;63.70;;;;;;5100475;28;20491;-80
2023/10/16 14:13:00;;;;;;;5.60;1.60;;;11.90;63.60;;;;;;5120029;27;20438;-80
2023/10/16 14:15:32;;;;;;;5.83;2.00;;;11.90;63.30;;;;;;5116129;27;20454;-80
2023/10/16 14:18:01;;;;;;;6.93;2.30;;;11.90;63.10;;;;;;5115089;27;20509;-80
2023/10/16 14:20:36;;;;;;;7.37;2.40;;;11.90;63.00;;;;;;5110012;27;20886;-79
2023/10/16 14:23:10;;;;;;;10.10;2.67;;;11.90;62.90;;;;;;5114685;27;20835;-79
2023/10/16 14:25:45;;;;;;;5.17;1.97;;;11.90;62.80;;;;;;5116858;27;20516;-79